createdAt,value
2018-09-12T00:02:17.222Z,8.92
2018-09-12T00:08:17.961Z,8.97
2018-09-12T00:12:18.977Z,7.85
2018-09-12T00:18:19.860Z,8.45
2018-09-12T00:22:20.760Z,7.82
2018-09-12T00:24:21.631Z,8.34
2018-09-12T00:28:22.504Z,7.79
2018-09-12T00:34:23.392Z,8.73
2018-09-12T00:38:24.347Z,8.55
2018-09-12T00:44:25.152Z,8.2
2018-09-12T00:48:25.995Z,7.85
2018-09-12T00:50:26.787Z,9.15
2018-09-12T00:54:27.566Z,8.42
2018-09-12T01:00:28.671Z,9.12
2018-09-12T01:04:29.433Z,8.61
2018-09-12T01:10:30.206Z,8.25
2018-09-12T01:16:31.029Z,8.94
2018-09-12T01:20:31.861Z,8.83
2018-09-12T01:26:32.612Z,8.44
2018-09-12T01:30:33.893Z,8.26
2018-09-12T01:36:34.707Z,9.15
2018-09-12T01:42:35.597Z,8.73
2018-09-12T01:46:39.802Z,8.81
2018-09-12T01:52:40.635Z,8.47
2018-09-12T01:56:41.458Z,8.11
2018-09-12T02:02:42.268Z,8.48
2018-09-12T02:08:43.110Z,8.05
2018-09-12T02:12:43.984Z,7.71
2018-09-12T02:18:44.719Z,8.12
2018-09-12T02:22:45.575Z,8.03
2018-09-12T02:28:46.379Z,7.99
2018-09-12T02:34:47.294Z,8.22
2018-09-12T02:38:48.073Z,7.63
2018-09-12T02:44:48.770Z,8.91
2018-09-12T02:48:49.625Z,8.93
2018-09-12T02:54:50.381Z,9.38
2018-09-12T03:00:51.189Z,9.27
2018-09-12T03:04:52.005Z,9.01
2018-09-12T03:10:52.696Z,9.29
2018-09-12T03:14:53.474Z,8.75
2018-09-12T03:20:54.485Z,8.89
2018-09-12T03:26:55.053Z,9.1
2018-09-12T03:30:55.878Z,8.69
2018-09-12T03:36:56.640Z,9.51
2018-09-12T03:40:57.629Z,25.13
2018-09-12T03:46:58.492Z,13.13
2018-09-12T03:52:59.298Z,9.07
2018-09-12T03:57:00.355Z,8.23
2018-09-12T04:03:01.173Z,8.98
2018-09-12T04:07:01.897Z,8.64
2018-09-12T04:13:02.699Z,8.33
2018-09-12T04:19:03.467Z,9.09
2018-09-12T04:23:04.314Z,8.63
2018-09-12T04:29:05.112Z,9.18
2018-09-12T04:33:05.843Z,8.88
2018-09-12T04:35:06.692Z,9.13
2018-09-12T04:39:07.435Z,8.96
2018-09-12T04:45:08.500Z,10.06
2018-09-12T04:49:09.481Z,9.5
2018-09-12T04:55:10.261Z,9.57
2018-09-12T04:59:11.050Z,9.69
2018-09-12T05:01:11.826Z,9.4
2018-09-12T05:05:12.675Z,9.32
2018-09-12T05:11:13.470Z,9.37
2018-09-12T05:15:14.640Z,9.53
2018-09-12T05:21:17.803Z,10.12
2018-09-12T05:25:18.585Z,9.35
2018-09-12T05:27:19.433Z,10.55
2018-09-12T05:31:20.279Z,9.71
2018-09-12T05:37:21.091Z,9.73
2018-09-12T05:41:21.868Z,9.84
2018-09-12T05:47:22.636Z,9.29
2018-09-12T05:51:23.622Z,9.1
2018-09-12T05:53:24.369Z,10.34
2018-09-12T05:57:25.264Z,10
2018-09-12T06:03:26.131Z,11.95
2018-09-12T06:07:27.234Z,12.1
2018-09-12T06:13:28.069Z,12.28
2018-09-12T06:17:28.975Z,11.94
2018-09-12T06:19:29.839Z,11.89
2018-09-12T06:23:30.673Z,11.55
2018-09-12T06:29:31.567Z,12.12
2018-09-12T06:33:32.348Z,11.63
2018-09-12T06:39:33.092Z,12.04
2018-09-12T06:43:33.871Z,12.84
2018-09-12T06:45:34.629Z,12.52
2018-09-12T06:49:35.528Z,12.11
2018-09-12T06:55:37.024Z,13.63
2018-09-12T06:59:37.807Z,13.44
2018-09-12T07:05:38.667Z,12.49
2018-09-12T07:09:39.485Z,11.72
2018-09-12T07:11:40.180Z,13.73
2018-09-12T07:15:40.889Z,12.63
2018-09-12T07:21:41.717Z,11.78
2018-09-12T07:25:42.430Z,11.63
2018-09-12T07:31:43.276Z,13.04
2018-09-12T07:35:44.114Z,13.27
2018-09-12T07:37:44.999Z,12.96
2018-09-12T07:41:45.802Z,13.65
2018-09-12T07:47:46.452Z,13.85
2018-09-12T07:51:47.254Z,13.48
2018-09-12T07:57:48.011Z,19.41
2018-09-12T08:01:48.844Z,19.31
2018-09-12T08:03:49.481Z,18.43
2018-09-12T08:07:50.275Z,17.75
2018-09-12T08:13:50.906Z,13.27
2018-09-12T08:17:51.677Z,12.44
2018-09-12T08:23:52.486Z,11.78
2018-09-12T08:27:53.343Z,11.57
2018-09-12T08:29:54.186Z,11.41
2018-09-12T08:33:54.903Z,10.64
2018-09-12T08:39:55.895Z,11.21
2018-09-12T08:43:56.773Z,10.71
2018-09-12T08:49:57.420Z,11.31
2018-09-12T08:53:58.398Z,10.53
2018-09-12T08:55:59.047Z,11.04
2018-09-12T08:59:59.802Z,10.76
2018-09-12T09:06:00.470Z,10.23
2018-09-12T09:10:01.228Z,10.17
2018-09-12T09:16:01.987Z,9.23
2018-09-12T09:22:02.747Z,10.37
2018-09-12T09:26:03.522Z,9.77
2018-09-12T09:32:04.300Z,10.87
2018-09-12T09:36:05.018Z,10.22
2018-09-12T09:42:05.927Z,10.3
2018-09-12T09:48:06.718Z,10.19
2018-09-12T09:52:07.295Z,9.91
2018-09-12T09:58:08.014Z,10.89
2018-09-12T10:02:08.767Z,10.05
2018-09-12T10:08:09.578Z,9.65
2018-09-12T10:14:10.313Z,8.92
2018-09-12T10:18:11.061Z,8.87
2018-09-12T10:24:11.923Z,8.29
2018-09-12T10:28:12.638Z,7.78
2018-09-12T10:34:13.544Z,8.64
2018-09-12T10:40:14.159Z,8.34
2018-09-12T10:44:14.845Z,7.59
2018-09-12T10:50:15.638Z,7.13
2018-09-12T10:54:16.432Z,7.64
2018-09-12T11:00:18.650Z,6.91
2018-09-12T11:06:19.392Z,5.6
2018-09-12T11:10:20.101Z,5.88
2018-09-12T11:16:20.932Z,5.95
2018-09-12T11:20:21.681Z,5.54
2018-09-12T11:22:22.388Z,4.8
2018-09-12T11:26:23.257Z,4.48
2018-09-12T11:32:23.946Z,5.51
2018-09-12T11:36:24.754Z,5.18
2018-09-12T11:42:25.546Z,5.29
2018-09-12T11:46:26.282Z,5.04
2018-09-12T11:48:27.133Z,4.9
2018-09-12T11:52:27.942Z,4.85
2018-09-12T11:58:28.679Z,4.45
2018-09-12T12:02:29.442Z,4.03
2018-09-12T12:08:30.241Z,4.15
2018-09-12T12:12:31.004Z,4.05
2018-09-12T12:14:31.786Z,4.28
2018-09-12T12:18:38.970Z,4.14
2018-09-12T12:24:40.206Z,4.84
2018-09-12T12:28:40.990Z,4.28
2018-09-12T12:34:41.699Z,4.51
2018-09-12T12:38:42.579Z,5.08
2018-09-12T12:40:43.277Z,4.82
2018-09-12T12:44:44.276Z,4.47
2018-09-12T12:50:45.115Z,4.61
2018-09-12T12:54:46.103Z,4.77
2018-09-12T13:00:47.139Z,4.83
2018-09-12T13:04:47.807Z,4.35
2018-09-12T13:06:48.925Z,4.46
2018-09-12T13:10:49.795Z,4.35
2018-09-12T13:16:50.631Z,4.78
2018-09-12T13:20:51.451Z,4.49
2018-09-12T13:26:52.190Z,4.66
2018-09-12T13:30:52.994Z,4.26
2018-09-12T13:32:53.709Z,4.19
2018-09-12T13:36:54.490Z,4.13
2018-09-12T13:42:55.352Z,5.31
2018-09-12T13:46:56.139Z,4.27
2018-09-12T13:52:56.862Z,4.13
2018-09-12T13:56:57.636Z,3.89
2018-09-12T13:58:59.826Z,4.11
2018-09-12T14:03:00.735Z,4.03
2018-09-12T14:09:01.401Z,4.38
2018-09-12T14:13:02.207Z,4.21
2018-09-12T14:19:02.912Z,4.13
2018-09-12T14:23:06.465Z,3.61
2018-09-12T14:25:07.551Z,5
2018-09-12T14:29:08.147Z,4.5
2018-09-12T14:35:08.975Z,3.68
2018-09-12T14:39:09.818Z,3.7
2018-09-12T14:45:10.995Z,3.81
2018-09-12T14:49:11.572Z,3.78
2018-09-12T14:51:12.285Z,4.36
2018-09-12T14:55:13.029Z,3.92
2018-09-12T15:01:13.779Z,6.88
2018-09-12T15:05:14.700Z,6.62
2018-09-12T15:11:15.432Z,5.96
2018-09-12T15:17:16.168Z,4.68
2018-09-12T15:21:16.887Z,4.15
2018-09-12T15:27:17.809Z,4.94
2018-09-12T15:31:18.534Z,4.42
2018-09-12T15:37:19.234Z,6.13
2018-09-12T15:43:20.133Z,5.91
2018-09-12T15:47:21.049Z,6.92
2018-09-12T15:53:21.690Z,6.54
2018-09-12T15:57:22.427Z,5.95
2018-09-12T16:03:23.100Z,5.9
2018-09-12T16:09:24.003Z,6.91
2018-09-12T16:13:24.835Z,6.29
2018-09-12T16:19:25.682Z,6.78
2018-09-12T16:23:26.382Z,6.71
2018-09-12T16:25:27.137Z,6.64
2018-09-12T16:29:27.973Z,6.43
2018-09-12T16:35:28.838Z,6.56
2018-09-12T16:39:29.547Z,6.41
2018-09-12T16:45:30.583Z,6.69
2018-09-12T16:49:31.353Z,6.54
2018-09-12T16:51:32.206Z,6.21
2018-09-12T16:55:32.966Z,6.82
2018-09-12T20:22:04.636Z,8.52
2018-09-12T20:22:04.639Z,5.75
2018-09-12T20:22:04.734Z,6.45
2018-09-12T20:22:05.858Z,6.91
2018-09-12T20:22:06.037Z,6.75
2018-09-12T20:22:06.272Z,8.35
2018-09-12T20:22:06.445Z,8.24
2018-09-12T20:22:06.637Z,7.84
2018-09-12T20:22:06.732Z,7.92
2018-09-12T20:22:22.291Z,9.86
2018-09-12T20:22:22.516Z,9.55
2018-09-12T20:22:22.721Z,8.91
2018-09-12T20:22:22.894Z,8.89
2018-09-12T20:22:23.021Z,8.55
2018-09-12T20:22:24.277Z,9.75
2018-09-12T20:22:24.440Z,10.22
2018-09-12T20:22:24.613Z,10.1
2018-09-12T20:22:24.709Z,8.23
2018-09-12T20:22:25.964Z,8.58
2018-09-12T20:22:26.135Z,7.77
2018-09-12T20:22:26.319Z,8.06
2018-09-12T20:22:26.459Z,7.94
2018-09-12T20:22:26.628Z,8.73
2018-09-12T20:22:29.857Z,7.39
2018-09-12T20:22:30.017Z,6.87
2018-09-12T20:22:30.212Z,6.46
2018-09-12T20:22:30.326Z,6.44
2018-09-12T20:22:30.473Z,6.34
2018-09-12T20:22:30.582Z,5.92
2018-09-12T20:22:31.788Z,5.92
2018-09-12T20:22:31.977Z,5.81
2018-09-12T20:22:32.074Z,6.98
2018-09-12T20:22:32.295Z,6.46
2018-09-12T20:22:32.462Z,6.7
2018-09-12T20:22:32.758Z,6.83
2018-09-12T20:22:32.901Z,7.01
2018-09-12T20:22:33.019Z,6.61
2018-09-12T20:22:33.206Z,8.4
2018-09-12T20:22:33.311Z,8.2
2018-09-12T20:22:33.429Z,8.96
2018-09-12T20:22:33.561Z,8.15
2018-09-12T20:22:33.735Z,10.87
2018-09-12T20:26:35.310Z,8.12
2018-09-12T20:33:05.847Z,7.27
2018-09-12T20:43:08.979Z,7.37
2018-09-12T20:43:10.089Z,6.93
2018-09-12T20:53:14.181Z,7.55
2018-09-12T20:53:14.422Z,8.35
2018-09-12T20:59:16.521Z,7.68
2018-09-12T21:03:22.739Z,9.02
2018-09-12T21:13:26.265Z,8.21
2018-09-12T21:13:26.385Z,8.84
2018-09-12T21:35:38.898Z,7.83
2018-09-12T21:35:39.030Z,8.39
2018-09-12T21:35:39.230Z,8.14
2018-09-12T21:35:39.349Z,8.45
2018-09-12T21:35:39.458Z,8.61
2018-09-12T21:39:40.440Z,7.33
2018-09-12T21:55:47.088Z,8.34
2018-09-12T21:55:47.235Z,8.24
2018-09-12T21:55:48.444Z,8.06
2018-09-12T22:05:51.520Z,9.33
2018-09-12T22:05:52.664Z,9.7
2018-09-12T22:22:14.574Z,7.98
2018-09-12T22:22:14.755Z,7.97
2018-09-12T22:22:14.922Z,7.79
2018-09-12T22:26:17.284Z,8.06
2018-09-12T22:38:20.936Z,7.42
2018-09-12T22:38:24.281Z,7.64
2018-09-12T22:42:29.688Z,7.26
2018-09-12T22:48:35.292Z,7.91
2018-09-12T22:52:36.873Z,8.14
2018-09-12T22:58:37.840Z,7.93
2018-09-12T23:02:38.689Z,7.3
2018-09-12T23:04:40.069Z,7.34
2018-09-12T23:24:46.524Z,7.84
2018-09-12T23:24:46.762Z,6.93
2018-09-12T23:24:46.948Z,7.09
2018-09-12T23:24:47.145Z,7.44
2018-09-12T23:28:49.549Z,7.06
2018-09-12T23:30:52.709Z,7.35
2018-09-12T23:34:55.286Z,7.36
2018-09-12T23:40:56.870Z,7.78
2018-09-12T23:45:04.021Z,6.68
2018-09-12T23:51:05.023Z,7.36
2018-09-12T23:55:08.918Z,7
